METAR AND TAF INFORMATION
METAR FOR GCTS
ADDS - METARS form results

(1829 UTC 21 June 2021)
Data provider http://aviationweather.gov/metar/data/
 
METAR text: GCTS 211800Z 08014KT 9999 FEW015 BKN020 22/17 Q1019 NOSIG
Conditions at: GCTS (TENERIFE SUR/REI, ES) observed 1800 UTC 21 June 2021
Temperature: 22.0°C (72°F)
Dewpoint: 17.0°C (63°F) [RH = 73%]
Pressure (altimeter): 30.09 inches Hg (1019.0 mb)
Winds: from the E (80 degrees) at 16 MPH (14 knots; 7.2 m/s)
Visibility: 6 or more miles (10+ km)
Ceiling: 2000 feet AGL
Clouds: few clouds at 1500 feet AGL
broken clouds at 2000 feet AGL
Weather: no significant weather observed at this time

METAR text: GCTS 211730Z 07015KT 9999 FEW015 BKN025 22/17 Q1019 NOSIG
Conditions at: GCTS (TENERIFE SUR/REI, ES) observed 1730 UTC 21 June 2021
Temperature: 22.0°C (72°F)
Dewpoint: 17.0°C (63°F) [RH = 73%]
Pressure (altimeter): 30.09 inches Hg (1019.0 mb)
Winds: from the ENE (70 degrees) at 17 MPH (15 knots; 7.7 m/s)
Visibility: 6 or more miles (10+ km)
Ceiling: 2500 feet AGL
Clouds: few clouds at 1500 feet AGL
broken clouds at 2500 feet AGL
Weather: no significant weather observed at this time

Forecast for: GCTS (TENERIFE SUR/REI, ES)
Text: TAF GCTS 211400Z 2115/2215 08015KT 9999 SCT030 TX25/2214Z TN19/2206Z
Forecast period: 1500 UTC 21 June 2021 to 1500 UTC 22 June 2021
Forecast type: FROM: standard forecast or significant change
Winds: from the E (80 degrees) at 17 MPH (15 knots; 7.7 m/s)
Visibility: 6 or more miles (10+ km)
Ceiling: at least 12,000 feet AGL
Clouds: scattered clouds at 3000 feet AGL
Weather: no significant weather forecast for this period
Text: PROB30
Forecast period: 1500 to 1600 UTC 21 June 2021
Forecast type: TEMPORARY: The following changes expected for less than half the time period
Winds: variable direction winds at 6 MPH (5 knots; 2.6 m/s)
Visibility: missing
Ceiling: unknown
Clouds: missing
Weather: no significant weather forecast for this period

 AIRPORT MAP

 RUNWAY INFORMATION

 AIRPORT FREQUENCIES
Type APP Name APP Frequency 120.3 MHZ
Type ATIS Name ATIS Frequency 118.675 MHZ
Type GND Name GND Frequency 121.9 MHZ
Type TWR Name TWR Frequency 119 MHZ

 AIRPORT NEAR NAVIGATION AIDS
Type NDB Name Tenerife Sur Frequency 317 KHZ
Type VOR-DME Name Tenerife Sur Frequency 116400 KHZ



2018 Air Astana Virtual Airline